createdAt,value
2018-09-09T00:04:36.760Z,101483.48
2018-09-09T00:09:36.478Z,101481.98
2018-09-09T00:14:31.025Z,101484.26
2018-09-09T00:19:25.634Z,101487.03
2018-09-09T00:24:20.221Z,101482.30
2018-09-09T00:29:14.669Z,101487.91
2018-09-09T00:34:09.088Z,101485.19
2018-09-09T00:39:03.833Z,101476.52
2018-09-09T00:43:58.464Z,101477.95
2018-09-09T00:48:57.849Z,101468.62
2018-09-09T00:53:52.327Z,101476.42
2018-09-09T00:58:47.025Z,101480.92
2018-09-09T01:03:41.533Z,101478.36
2018-09-09T01:08:36.044Z,101475.19
2018-09-09T01:13:30.802Z,101466.24
2018-09-09T01:18:25.334Z,101468.81
2018-09-09T01:23:20.105Z,101458.91
2018-09-09T01:28:15.105Z,101444.91
2018-09-09T01:33:10.035Z,101449.59
2018-09-09T01:38:04.596Z,101469.23
2018-09-09T01:42:59.448Z,101477.81
2018-09-09T01:47:54.261Z,101488.12
2018-09-09T01:52:48.973Z,101495.55
2018-09-09T01:57:43.939Z,101488.58
2018-09-09T02:02:39.485Z,101498.63
2018-09-09T02:07:34.022Z,101493.76
2018-09-09T02:12:28.601Z,101486.06
2018-09-09T02:17:23.520Z,101474.72
2018-09-09T02:22:18.029Z,101472.26
2018-09-09T02:27:12.496Z,101477.69
2018-09-09T02:32:07.280Z,101463.02
2018-09-09T02:37:02.036Z,101451.59
2018-09-09T02:41:56.768Z,101467.02
2018-09-09T02:46:51.506Z,101472.26
2018-09-09T02:51:46.141Z,101494.83
2018-09-09T02:56:40.942Z,101493.96
2018-09-09T03:01:35.409Z,101497.23
2018-09-09T03:06:30.033Z,101497.90
2018-09-09T03:11:24.490Z,101500.94
2018-09-09T03:16:19.028Z,101504.73
2018-09-09T03:21:13.494Z,101496.46
2018-09-09T03:26:07.980Z,101495.23
2018-09-09T03:31:02.417Z,101497.99
2018-09-09T03:35:56.904Z,101496.66
2018-09-09T03:40:51.815Z,101483.99
2018-09-09T03:45:46.454Z,101478.86
2018-09-09T03:50:40.941Z,101474.59
2018-09-09T03:55:35.424Z,101473.36
2018-09-09T04:00:29.905Z,101470.49
2018-09-09T04:05:24.367Z,101464.03
2018-09-09T04:10:18.859Z,101459.76
2018-09-09T04:15:13.334Z,101466.98
2018-09-09T04:20:08.101Z,101472.78
2018-09-09T04:25:02.614Z,101490.52
2018-09-09T04:29:57.211Z,101478.61
2018-09-09T04:34:51.693Z,101481.55
2018-09-09T04:39:46.155Z,101479.66
2018-09-09T04:44:40.670Z,101504.87
2018-09-09T04:49:35.202Z,101512.48
2018-09-09T04:54:29.973Z,101513.07
2018-09-09T04:59:24.568Z,101512.69
2018-09-09T05:04:19.241Z,101517.91
2018-09-09T05:09:13.986Z,101525.53
2018-09-09T05:14:09.188Z,101523.23
2018-09-09T05:19:04.332Z,101524.31
2018-09-09T05:23:59.060Z,101510.60
2018-09-09T05:28:53.703Z,101523.64
2018-09-09T05:33:48.266Z,101519.52
2018-09-09T05:38:42.801Z,101526.16
2018-09-09T05:43:37.411Z,101529.77
2018-09-09T05:48:32.104Z,101538.00
2018-09-09T05:53:26.931Z,101535.48
2018-09-09T05:58:21.777Z,101535.42
2018-09-09T06:03:16.702Z,101538.75
2018-09-09T06:08:11.522Z,101540.59
2018-09-09T06:13:06.206Z,101541.74
2018-09-09T06:18:01.176Z,101547.20
2018-09-09T06:22:55.979Z,101547.45
2018-09-09T06:27:50.556Z,101555.84
2018-09-09T06:32:46.128Z,101567.03
2018-09-09T06:37:40.642Z,101567.12
2018-09-09T06:42:35.470Z,101552.09
2018-09-09T06:47:29.992Z,101559.80
2018-09-09T06:52:24.808Z,101561.92
2018-09-09T06:57:19.530Z,101567.48
2018-09-09T07:02:14.085Z,101567.35
2018-09-09T07:07:08.754Z,101563.78
2018-09-09T07:12:04.114Z,101561.56
2018-09-09T07:16:58.679Z,101558.74
2018-09-09T07:21:53.400Z,101550.55
2018-09-09T07:26:47.882Z,101554.69
2018-09-09T07:31:42.375Z,101561.02
2018-09-09T07:36:36.844Z,101569.95
2018-09-09T07:41:31.319Z,101580.47
2018-09-09T07:46:25.916Z,101588.54
2018-09-09T07:51:20.552Z,101578.70
2018-09-09T07:56:15.082Z,101594.35
2018-09-09T08:01:09.703Z,101587.39
2018-09-09T08:06:04.683Z,101584.59
2018-09-09T08:10:59.592Z,101590.82
2018-09-09T08:15:54.332Z,101588.17
2018-09-09T08:20:49.205Z,101593.39
2018-09-09T08:25:44.316Z,101583.22
2018-09-09T08:30:39.098Z,101587.91
2018-09-09T08:35:34.228Z,101590.28
2018-09-09T08:40:29.416Z,101594.06
2018-09-09T08:45:24.275Z,101591.03
2018-09-09T08:50:19.170Z,101591.41
2018-09-09T08:55:14.072Z,101585.89
2018-09-09T09:00:09.160Z,101596.67
2018-09-09T09:05:04.640Z,101593.51
2018-09-09T09:09:59.645Z,101591.52
2018-09-09T09:14:54.709Z,101590.91
2018-09-09T09:19:49.527Z,101589.12
2018-09-09T09:24:44.290Z,101594.83
2018-09-09T09:30:10.930Z,101596.37
2018-09-09T09:35:06.462Z,101595.38
2018-09-09T09:40:01.339Z,101587.44
2018-09-09T09:44:56.150Z,101582.98
2018-09-09T09:49:50.980Z,101578.99
2018-09-09T09:54:46.125Z,101578.72
2018-09-09T09:59:40.854Z,101576.91
2018-09-09T10:04:35.778Z,101574.73
2018-09-09T10:09:30.516Z,101593.04
2018-09-09T10:14:25.321Z,101592.91
2018-09-09T10:19:20.114Z,101586.22
2018-09-09T10:24:14.921Z,101586.95
2018-09-09T10:29:09.708Z,101590.16
2018-09-09T10:34:04.421Z,101590.59
2018-09-09T10:38:59.189Z,101584.20
2018-09-09T10:43:53.931Z,101584.30
2018-09-09T10:48:49.255Z,101585.32
2018-09-09T10:53:44.149Z,101588.30
2018-09-09T10:58:38.923Z,101579.30
2018-09-09T11:03:33.856Z,101568.30
2018-09-09T11:08:28.654Z,101553.33
2018-09-09T11:13:23.602Z,101554.89
2018-09-09T11:18:18.770Z,101557.52
2018-09-09T11:23:13.484Z,101568.69
2018-09-09T11:28:08.466Z,101563.64
2018-09-09T11:33:03.338Z,101557.66
2018-09-09T11:37:58.345Z,101558.88
2018-09-09T11:42:53.387Z,101553.91
2018-09-09T11:47:48.164Z,101556.33
2018-09-09T11:52:42.920Z,101545.13
2018-09-09T11:57:37.456Z,101545.45
2018-09-09T12:02:31.978Z,101531.95
2018-09-09T12:07:26.743Z,101529.36
2018-09-09T12:12:21.649Z,101527.23
2018-09-09T12:17:16.210Z,101525.25
2018-09-09T12:22:11.332Z,101524.93
2018-09-09T12:27:05.830Z,101519.28
2018-09-09T12:32:00.310Z,101523.19
2018-09-09T12:36:55.049Z,101522.00
2018-09-09T12:41:49.671Z,101512.48
2018-09-09T12:46:49.556Z,101504.69
2018-09-09T12:51:44.130Z,101506.89
2018-09-09T12:56:38.711Z,101516.74
2018-09-09T13:01:33.172Z,101499.28
2018-09-09T13:06:27.805Z,101510.18
2018-09-09T13:11:22.273Z,101511.02
2018-09-09T13:16:16.834Z,101503.46
2018-09-09T13:21:11.430Z,101502.17
2018-09-09T13:26:06.497Z,101507.28
2018-09-09T13:31:01.205Z,101494.72
2018-09-09T13:35:56.357Z,101501.48
2018-09-09T13:40:51.127Z,101490.02
2018-09-09T13:45:45.884Z,101490.03
2018-09-09T13:50:40.636Z,101490.97
2018-09-09T13:55:35.952Z,101488.42
2018-09-09T14:00:31.036Z,101474.19
2018-09-09T14:05:26.088Z,101479.58
2018-09-09T14:10:21.058Z,101471.51
2018-09-09T14:15:15.884Z,101480.58
2018-09-09T14:20:11.327Z,101463.23
2018-09-09T14:25:06.292Z,101460.52
2018-09-09T14:30:01.496Z,101453.15
2018-09-09T14:34:56.544Z,101452.61
2018-09-09T14:39:51.364Z,101450.87
2018-09-09T14:44:46.186Z,101455.11
2018-09-09T14:49:41.581Z,101449.12
2018-09-09T14:54:36.307Z,101455.95
2018-09-09T14:59:31.007Z,101457.14
2018-09-09T15:04:25.773Z,101457.03
2018-09-09T15:09:20.695Z,101455.67
2018-09-09T15:14:15.522Z,101451.24
2018-09-09T15:19:10.676Z,101452.34
2018-09-09T15:24:05.456Z,101445.25
2018-09-09T15:28:59.902Z,101445.47
2018-09-09T15:33:54.775Z,101443.98
2018-09-09T15:38:49.825Z,101445.00
2018-09-09T15:43:44.406Z,101436.86
2018-09-09T15:48:39.217Z,101436.50
2018-09-09T15:53:45.722Z,101434.48
2018-09-09T15:58:40.167Z,101433.66
2018-09-09T16:03:35.122Z,101419.78
2018-09-09T16:08:29.636Z,101430.80
2018-09-09T16:13:24.082Z,101431.64
2018-09-09T16:18:18.718Z,101429.25
2018-09-09T16:23:15.773Z,101438.59
2018-09-09T16:28:10.264Z,101439.94
2018-09-09T16:33:04.750Z,101435.00
2018-09-09T16:37:59.272Z,101434.99
2018-09-09T16:42:53.789Z,101431.71
2018-09-09T16:47:48.551Z,101439.29
2018-09-09T16:52:43.221Z,101442.75
2018-09-09T16:57:37.813Z,101440.95
2018-09-09T17:02:32.382Z,101438.63
2018-09-09T17:07:26.870Z,101440.52
2018-09-09T17:12:21.479Z,101432.88
2018-09-09T17:17:15.934Z,101437.09
2018-09-09T17:22:11.387Z,101435.88
2018-09-09T17:27:05.941Z,101438.50
2018-09-09T17:32:00.442Z,101435.38
2018-09-09T17:36:55.107Z,101439.19
2018-09-09T17:41:49.745Z,101442.49
2018-09-09T17:46:44.924Z,101445.72
2018-09-09T17:51:39.985Z,101450.34
2018-09-09T17:56:34.493Z,101451.23
2018-09-09T18:01:29.059Z,101459.17
2018-09-09T18:06:23.648Z,101456.86
2018-09-09T18:11:18.758Z,101452.03
2018-09-09T18:16:14.111Z,101449.62
2018-09-09T18:21:09.314Z,101449.38
2018-09-09T18:26:04.388Z,101454.98
2018-09-09T18:30:59.705Z,101462.62
2018-09-09T18:35:54.188Z,101464.70
2018-09-09T18:40:52.711Z,101460.56
2018-09-09T18:45:48.168Z,101468.73
2018-09-09T18:50:42.942Z,101462.72
2018-09-09T18:55:38.541Z,101468.66
2018-09-09T19:00:33.024Z,101465.44
2018-09-09T19:05:28.099Z,101467.55
2018-09-09T19:10:22.566Z,101473.86
2018-09-09T19:15:17.364Z,101474.57
2018-09-09T19:20:12.677Z,101479.05
2018-09-09T19:25:07.748Z,101488.38
2018-09-09T19:30:02.575Z,101488.42
2018-09-09T19:34:57.521Z,101483.83
2018-09-09T19:39:52.231Z,101490.69
2018-09-09T19:44:46.967Z,101490.84
2018-09-09T19:49:41.784Z,101496.09
2018-09-09T19:54:37.729Z,101495.27
2018-09-09T19:59:32.707Z,101500.52
2018-09-09T20:04:27.264Z,101491.58
2018-09-09T20:09:21.919Z,101498.66
2018-09-09T20:14:18.491Z,101496.84
2018-09-09T20:19:13.237Z,101500.84
2018-09-09T20:24:07.933Z,101497.52
2018-09-09T20:29:02.607Z,101502.38
2018-09-09T20:33:57.222Z,101503.09
2018-09-09T20:38:51.985Z,101507.87
2018-09-09T20:43:46.673Z,101509.17
2018-09-09T20:48:41.815Z,101511.60
2018-09-09T20:53:36.849Z,101515.86
2018-09-09T20:58:31.366Z,101509.05
2018-09-09T21:03:26.435Z,101515.04
2018-09-09T21:08:20.935Z,101511.89
2018-09-09T21:13:15.657Z,101515.51
2018-09-09T21:18:10.123Z,101517.07
2018-09-09T21:23:04.899Z,101513.17
2018-09-09T21:27:59.418Z,101514.64
2018-09-09T21:32:54.045Z,101510.30
2018-09-09T21:37:48.568Z,101508.37
2018-09-09T21:42:43.038Z,101498.49
2018-09-09T21:47:37.752Z,101503.85
2018-09-09T21:52:32.366Z,101501.17
2018-09-09T21:57:26.886Z,101501.36
2018-09-09T22:02:21.977Z,101505.14
2018-09-09T22:07:16.657Z,101490.64
2018-09-09T22:12:12.003Z,101497.07
2018-09-09T22:17:06.752Z,101493.02
2018-09-09T22:22:01.426Z,101483.84
2018-09-09T22:26:56.836Z,101485.05
2018-09-09T22:31:51.776Z,101476.86
2018-09-09T22:36:46.385Z,101479.89
2018-09-09T22:41:41.094Z,101474.13
2018-09-09T22:46:35.780Z,101469.01
2018-09-09T22:51:30.505Z,101473.84
2018-09-09T22:56:25.022Z,101473.49
2018-09-09T23:01:19.807Z,101481.05
2018-09-09T23:06:14.465Z,101477.75
2018-09-09T23:11:09.022Z,101475.69
2018-09-09T23:16:03.490Z,101474.70
2018-09-09T23:20:57.995Z,101466.27
2018-09-09T23:25:52.461Z,101467.20
2018-09-09T23:30:46.983Z,101464.12
2018-09-09T23:35:41.616Z,101456.66
2018-09-09T23:40:36.136Z,101453.58
2018-09-09T23:45:30.591Z,101453.92
2018-09-09T23:50:25.213Z,101454.70
2018-09-09T23:55:19.867Z,101462.72
